createdAt,value
2019-03-19T00:00:51.378Z,62.46
2019-03-19T00:06:01.297Z,63.47
2019-03-19T00:11:09.188Z,62.40
2019-03-19T00:16:39.252Z,62.90
2019-03-19T00:21:52.244Z,61.92
2019-03-19T00:27:00.405Z,62.46
2019-03-19T00:32:08.410Z,61.91
2019-03-19T00:37:16.572Z,61.93
2019-03-19T00:42:27.057Z,61.65
2019-03-19T00:47:36.711Z,60.74
2019-03-19T00:52:46.622Z,61.58
2019-03-19T00:57:56.264Z,61.46
2019-03-19T01:03:04.198Z,61.93
2019-03-19T01:08:13.060Z,61.35
2019-03-19T01:13:22.436Z,61.60
2019-03-19T01:18:30.360Z,62.93
2019-03-19T01:23:39.208Z,63.04
2019-03-19T01:28:47.772Z,63.20
2019-03-19T01:33:57.448Z,61.78
2019-03-19T01:39:07.374Z,62.63
2019-03-19T01:44:19.328Z,63.12
2019-03-19T01:49:26.712Z,61.92
2019-03-19T01:54:34.398Z,61.85
2019-03-19T01:59:42.593Z,61.79
2019-03-19T02:04:49.552Z,60.28
2019-03-19T02:10:01.230Z,59.55
2019-03-19T02:15:14.465Z,61.21
2019-03-19T02:20:20.886Z,61.70
2019-03-19T02:25:28.555Z,62.36
2019-03-19T02:30:36.673Z,62.12
2019-03-19T02:35:44.160Z,62.56
2019-03-19T02:40:54.596Z,62.07
2019-03-19T02:46:00.794Z,62.52
2019-03-19T02:51:07.536Z,62.54
2019-03-19T02:56:31.290Z,62.29
2019-03-19T03:01:24.646Z,63.32
2019-03-19T03:06:30.959Z,65.00
2019-03-19T03:11:37.676Z,63.16
2019-03-19T03:16:44.520Z,63.14
2019-03-19T03:21:51.407Z,63.88
2019-03-19T03:27:02.288Z,64.00
2019-03-19T03:32:10.391Z,63.38
2019-03-19T03:37:17.065Z,63.35
2019-03-19T03:42:25.510Z,62.46
2019-03-19T03:47:35.854Z,64.43
2019-03-19T03:52:42.671Z,63.78
2019-03-19T03:57:49.485Z,64.51
2019-03-19T04:02:57.996Z,62.75
2019-03-19T04:08:05.458Z,63.46
2019-03-19T04:13:12.292Z,63.01
2019-03-19T04:18:19.071Z,61.64
2019-03-19T04:23:25.873Z,61.57
2019-03-19T04:28:32.895Z,61.75
2019-03-19T04:33:39.874Z,62.00
2019-03-19T04:38:48.943Z,61.73
2019-03-19T04:43:55.942Z,61.37
2019-03-19T04:49:05.961Z,61.23
2019-03-19T04:54:13.881Z,62.00
2019-03-19T04:59:25.128Z,61.89
2019-03-19T05:04:33.847Z,61.75
2019-03-19T05:09:43.899Z,63.06
2019-03-19T05:14:52.995Z,63.35
2019-03-19T05:20:02.148Z,62.59
2019-03-19T05:25:12.915Z,63.31
2019-03-19T05:30:27.794Z,61.67
2019-03-19T05:35:37.763Z,61.90
2019-03-19T05:40:48.225Z,62.66
2019-03-19T05:45:57.054Z,62.77
2019-03-19T05:51:08.393Z,62.45
2019-03-19T05:56:19.776Z,61.26
2019-03-19T06:01:26.383Z,60.65
2019-03-19T06:06:32.315Z,61.17
2019-03-19T06:11:38.276Z,60.63
2019-03-19T06:16:44.168Z,60.78
2019-03-19T06:21:50.238Z,60.77
2019-03-19T06:26:57.431Z,59.74
2019-03-19T06:32:04.715Z,58.71
2019-03-19T06:37:12.231Z,60.50
2019-03-19T06:42:19.487Z,59.83
2019-03-19T06:47:25.319Z,61.31
2019-03-19T06:52:31.926Z,61.13
2019-03-19T06:57:39.695Z,61.71
2019-03-19T07:02:46.606Z,61.62
2019-03-19T07:07:52.787Z,61.00
2019-03-19T07:12:58.894Z,61.67
2019-03-19T07:18:06.157Z,60.17
2019-03-19T07:23:13.565Z,60.69
2019-03-19T07:28:22.201Z,59.39
2019-03-19T07:33:29.227Z,58.00
2019-03-19T07:38:37.269Z,58.40
2019-03-19T07:43:44.950Z,59.66
2019-03-19T07:48:51.468Z,58.13
2019-03-19T07:53:57.943Z,58.72
2019-03-19T07:59:05.254Z,57.89
2019-03-19T08:04:11.246Z,58.15
2019-03-19T08:09:17.712Z,58.45
2019-03-19T08:14:24.368Z,57.07
2019-03-19T08:19:31.550Z,57.69
2019-03-19T08:24:38.462Z,57.82
2019-03-19T08:29:45.176Z,56.46
2019-03-19T08:34:51.191Z,55.90
2019-03-19T08:39:57.240Z,56.06
2019-03-19T08:45:03.261Z,54.45
2019-03-19T08:50:14.747Z,53.93
2019-03-19T08:55:22.192Z,53.61
2019-03-19T09:00:28.826Z,53.05
2019-03-19T09:05:34.652Z,52.44
2019-03-19T09:10:40.592Z,51.61
2019-03-19T09:15:47.503Z,51.62
2019-03-19T09:20:54.286Z,49.93
2019-03-19T09:26:00.714Z,48.70
2019-03-19T09:31:07.164Z,47.77
2019-03-19T09:36:14.033Z,47.01
2019-03-19T09:41:22.150Z,47.24
2019-03-19T09:46:28.258Z,46.17
2019-03-19T09:51:34.482Z,45.15
2019-03-19T09:56:40.352Z,44.39
2019-03-19T10:01:46.924Z,44.15
2019-03-19T10:06:53.214Z,43.59
2019-03-19T10:11:58.863Z,42.43
2019-03-19T10:17:04.704Z,43.28
2019-03-19T10:22:11.308Z,42.17
2019-03-19T10:27:16.934Z,39.90
2019-03-19T10:32:22.906Z,41.49
2019-03-19T10:37:28.469Z,40.40
2019-03-19T10:42:34.932Z,39.71
2019-03-19T10:47:40.739Z,40.40
2019-03-19T10:52:47.156Z,40.60
2019-03-19T10:57:54.348Z,41.68
2019-03-19T11:02:59.921Z,41.70
2019-03-19T11:08:07.079Z,41.26
2019-03-19T11:13:12.675Z,41.19
2019-03-19T11:18:19.857Z,43.00
2019-03-19T11:23:25.811Z,42.60
2019-03-19T11:28:31.623Z,41.25
2019-03-19T11:33:37.317Z,43.09
2019-03-19T11:38:43.389Z,43.08
2019-03-19T11:43:49.232Z,42.64
2019-03-19T11:48:54.948Z,42.57
2019-03-19T11:54:00.517Z,41.66
2019-03-19T11:59:06.458Z,39.46
2019-03-19T12:04:12.043Z,37.62
2019-03-19T12:09:18.181Z,37.94
2019-03-19T12:14:24.401Z,37.52
2019-03-19T12:19:32.259Z,37.10
2019-03-19T12:24:38.605Z,38.00
2019-03-19T12:29:46.034Z,37.64
2019-03-19T12:34:53.751Z,36.24
2019-03-19T12:40:00.368Z,37.60
2019-03-19T12:45:08.922Z,37.71
2019-03-19T12:50:19.704Z,37.52
2019-03-19T12:55:26.024Z,37.44
2019-03-19T13:00:34.572Z,37.94
2019-03-19T13:05:39.676Z,37.32
2019-03-19T13:10:45.725Z,37.49
2019-03-19T13:15:52.030Z,36.98
2019-03-19T13:20:58.946Z,36.26
2019-03-19T13:26:04.568Z,35.92
2019-03-19T13:31:10.656Z,35.37
2019-03-19T13:36:16.354Z,36.80
2019-03-19T13:41:23.815Z,37.18
2019-03-19T13:46:30.131Z,37.15
2019-03-19T13:51:37.776Z,36.97
2019-03-19T13:56:43.381Z,37.25
2019-03-19T14:01:49.930Z,37.40
2019-03-19T14:06:55.765Z,38.37
2019-03-19T14:12:01.844Z,37.07
2019-03-19T14:17:09.179Z,37.44
2019-03-19T14:22:15.701Z,37.05
2019-03-19T14:27:22.046Z,37.57
2019-03-19T14:32:28.171Z,37.56
2019-03-19T14:37:35.153Z,37.84
2019-03-19T14:42:42.520Z,36.17
2019-03-19T14:47:50.541Z,37.16
2019-03-19T14:52:57.600Z,35.55
2019-03-19T14:58:04.130Z,34.22
2019-03-19T15:03:10.067Z,32.12
2019-03-19T15:08:16.795Z,32.32
2019-03-19T15:13:22.744Z,33.78
2019-03-19T15:18:28.751Z,35.38
2019-03-19T15:23:36.822Z,36.18
2019-03-19T15:28:46.445Z,36.03
2019-03-19T15:33:54.797Z,35.81
2019-03-19T15:39:01.058Z,35.86
2019-03-19T15:44:10.160Z,37.58
2019-03-19T15:49:16.330Z,36.83
2019-03-19T15:54:22.656Z,36.04
2019-03-19T15:59:29.670Z,37.96
2019-03-19T16:04:35.792Z,39.76
2019-03-19T16:09:41.985Z,40.09
2019-03-19T16:14:49.082Z,41.18
2019-03-19T16:19:57.028Z,38.57
2019-03-19T16:25:03.225Z,36.82
2019-03-19T16:30:16.236Z,37.30
2019-03-19T16:35:24.894Z,38.98
2019-03-19T16:40:31.276Z,39.96
2019-03-19T16:45:37.726Z,41.01
2019-03-19T16:50:43.867Z,42.03
2019-03-19T16:55:52.352Z,41.38
2019-03-19T17:00:59.690Z,41.63
2019-03-19T17:06:06.357Z,41.74
2019-03-19T17:11:11.999Z,41.82
2019-03-19T17:16:18.972Z,42.10
2019-03-19T17:21:26.217Z,41.71
2019-03-19T17:26:32.303Z,41.60
2019-03-19T17:31:38.625Z,41.16
2019-03-19T17:36:44.572Z,42.14
2019-03-19T17:41:50.614Z,42.14
2019-03-19T17:46:56.887Z,41.92
2019-03-19T17:52:02.641Z,42.43
2019-03-19T17:57:08.525Z,42.78
2019-03-19T18:02:23.578Z,42.59
2019-03-19T18:07:23.925Z,43.60
2019-03-19T18:12:30.236Z,43.42
2019-03-19T18:17:36.832Z,43.47
2019-03-19T18:22:42.772Z,45.04
2019-03-19T18:27:48.756Z,45.02
2019-03-19T18:32:55.559Z,44.08
2019-03-19T18:38:02.030Z,45.32
2019-03-19T18:43:07.886Z,44.94
2019-03-19T18:48:13.814Z,44.19
2019-03-19T18:53:20.885Z,46.42
2019-03-19T18:58:27.147Z,46.65
2019-03-19T19:03:33.986Z,47.03
2019-03-19T19:08:40.275Z,46.73
2019-03-19T19:13:48.118Z,46.28
2019-03-19T19:18:55.172Z,46.54
2019-03-19T19:24:01.972Z,46.63
2019-03-19T19:29:07.970Z,45.94
2019-03-19T19:34:14.340Z,46.11
2019-03-19T19:39:20.870Z,46.54
2019-03-19T19:44:29.876Z,45.92
2019-03-19T19:49:35.296Z,46.88
2019-03-19T19:54:41.526Z,45.68
2019-03-19T19:59:47.467Z,45.96
2019-03-19T20:05:02.617Z,45.39
2019-03-19T20:10:02.540Z,46.07
2019-03-19T20:15:10.826Z,47.09
2019-03-19T20:20:22.487Z,46.83
2019-03-19T20:25:28.498Z,46.89
2019-03-19T20:30:35.322Z,46.89
2019-03-19T20:35:42.461Z,47.18
2019-03-19T20:40:48.997Z,46.68
2019-03-19T20:45:54.657Z,46.05
2019-03-19T20:51:02.042Z,46.46
2019-03-19T20:56:09.539Z,46.21
2019-03-19T21:01:22.078Z,46.10
2019-03-19T21:06:28.903Z,45.96
2019-03-19T21:11:37.610Z,48.07
2019-03-19T21:16:44.783Z,47.18
2019-03-19T21:21:50.349Z,47.47
2019-03-19T21:26:56.614Z,46.67
2019-03-19T21:32:04.627Z,48.87
2019-03-19T21:37:10.895Z,47.88
2019-03-19T21:42:18.342Z,49.16
2019-03-19T21:47:24.471Z,49.52
2019-03-19T21:52:29.999Z,48.13
2019-03-19T21:57:36.166Z,49.68
2019-03-19T22:02:43.219Z,50.41
2019-03-19T22:07:50.529Z,49.47
2019-03-19T22:12:56.280Z,48.87
2019-03-19T22:18:03.436Z,49.07
2019-03-19T22:23:09.173Z,48.53
2019-03-19T22:28:15.072Z,48.99
2019-03-19T22:33:23.219Z,48.93
2019-03-19T22:38:29.175Z,48.39
2019-03-19T22:43:36.349Z,47.76
2019-03-19T22:48:42.862Z,48.06
2019-03-19T22:53:48.872Z,49.45
2019-03-19T22:58:54.415Z,48.84
2019-03-19T23:04:00.010Z,48.52
2019-03-19T23:09:07.493Z,47.86
2019-03-19T23:14:14.790Z,47.78
2019-03-19T23:19:22.147Z,47.42
2019-03-19T23:24:28.083Z,47.11
2019-03-19T23:29:33.854Z,47.40
2019-03-19T23:34:41.037Z,47.32
2019-03-19T23:39:47.233Z,47.80
2019-03-19T23:44:52.871Z,47.81
2019-03-19T23:49:58.772Z,47.98
2019-03-19T23:55:06.669Z,47.71
